ZRH weather

Z├╝rich Airport
Zurich, Canton of Zurich, Switzerland

Public forecast

Using degrees Celsius for public forecast. Weather courtesy of forecast.io.

METAR (pilot weather report)

Retrieved 2019/04/21 12:20 UTC (9 minutes ago):

LSZH 211220Z 04003KT 360V110 CAVOK 20/03 Q1018 NOSIG

TAF (pilot weather forecast)

Retrieved 2019/04/21 12:37 UTC (0 seconds ago):

TAF LSZH 211125Z 2112/2218 VRB03KT CAVOK TX22/2115Z TN06/2204Z TX21/2215Z BECMG 2112/2114 04005KT TEMPO 2112/2120 05010KT BECMG 2118/2121 VRB03KT BECMG 2206/2209 06010KT